createdAt,value
2023-05-22T00:00:45.810Z,2.5
2023-05-22T00:01:45.805Z,2.4
2023-05-22T00:02:46.035Z,2.4
2023-05-22T00:03:45.782Z,2.5
2023-05-22T00:04:45.832Z,2.9
2023-05-22T00:05:45.860Z,2.5
2023-05-22T00:06:45.803Z,2.9
2023-05-22T00:07:46.035Z,2.1
2023-05-22T00:08:46.124Z,2.3
2023-05-22T00:09:45.766Z,2.7
2023-05-22T00:10:45.760Z,3.1
2023-05-22T00:11:45.780Z,2.5
2023-05-22T00:12:45.803Z,2.5
2023-05-22T00:13:45.798Z,2.8
2023-05-22T00:14:45.751Z,2.3
2023-05-22T00:15:45.760Z,2.7
2023-05-22T00:16:45.820Z,2.6
2023-05-22T00:17:45.899Z,2.5
2023-05-22T00:18:45.919Z,2.5
2023-05-22T00:19:45.790Z,2.3
2023-05-22T00:20:45.779Z,2.5
2023-05-22T00:21:45.784Z,2.6
2023-05-22T00:22:45.753Z,2.5
2023-05-22T00:23:45.760Z,2.6
2023-05-22T00:24:45.773Z,2.5
2023-05-22T00:25:45.747Z,2.2
2023-05-22T00:26:45.820Z,2.3
2023-05-22T00:27:45.769Z,2.4
2023-05-22T00:28:45.837Z,2.6
2023-05-22T00:29:45.897Z,2.6
2023-05-22T00:30:45.802Z,2.6
2023-05-22T00:31:45.728Z,2.8
2023-05-22T00:32:45.823Z,2.5
2023-05-22T00:33:45.747Z,2.8
2023-05-22T00:34:45.778Z,2.8
2023-05-22T00:35:45.778Z,2.9
2023-05-22T00:36:45.775Z,2.5
2023-05-22T00:37:45.753Z,2.8
2023-05-22T00:38:45.761Z,2.6
2023-05-22T00:39:45.740Z,2.6
2023-05-22T00:40:45.947Z,2.3
2023-05-22T00:41:45.732Z,2.7
2023-05-22T00:42:45.728Z,2.8
2023-05-22T00:43:45.738Z,2.6
2023-05-22T00:44:45.735Z,2.6
2023-05-22T00:45:45.742Z,2.6
2023-05-22T00:46:45.780Z,2.9
2023-05-22T00:47:45.809Z,2.5
2023-05-22T00:48:45.743Z,2.3
2023-05-22T00:49:45.760Z,2.8
2023-05-22T00:50:45.735Z,2.1
2023-05-22T00:51:45.846Z,2.5
2023-05-22T00:52:45.726Z,2.4
2023-05-22T00:53:45.737Z,2.6
2023-05-22T00:54:45.717Z,2.6
2023-05-22T00:55:45.752Z,2.9
2023-05-22T00:56:45.705Z,3.7
2023-05-22T00:57:45.709Z,2.4
2023-05-22T00:58:45.712Z,2.3
2023-05-22T00:59:45.738Z,2.9
2023-05-22T01:00:45.715Z,2.2
2023-05-22T01:01:45.776Z,2.3
2023-05-22T01:02:46.071Z,2.7
2023-05-22T01:03:45.965Z,2.7
2023-05-22T01:04:45.724Z,2.6
2023-05-22T01:05:45.736Z,2.6
2023-05-22T01:06:45.680Z,2.4
2023-05-22T01:07:45.747Z,2.6
2023-05-22T01:08:45.690Z,3.1
2023-05-22T01:09:45.729Z,2.6
2023-05-22T01:10:45.693Z,2.8
2023-05-22T01:11:45.703Z,2.4
2023-05-22T01:12:45.725Z,2.7
2023-05-22T01:13:45.837Z,2.6
2023-05-22T01:14:45.709Z,2.6
2023-05-22T01:15:45.723Z,2.7
2023-05-22T01:16:45.793Z,2.5
2023-05-22T01:17:45.715Z,2.5
2023-05-22T01:18:45.691Z,2.6
2023-05-22T01:19:45.716Z,2.3
2023-05-22T01:20:48.655Z,2.3
2023-05-22T01:21:45.637Z,2.7
2023-05-22T01:22:45.664Z,3.0
2023-05-22T01:23:45.649Z,2.8
2023-05-22T01:24:45.816Z,2.5
2023-05-22T01:25:45.681Z,2.7
2023-05-22T01:26:45.663Z,2.4
2023-05-22T01:27:45.696Z,2.5
2023-05-22T01:28:45.663Z,2.4
2023-05-22T01:29:45.690Z,2.4
2023-05-22T01:30:45.653Z,2.6
2023-05-22T01:31:45.628Z,2.4
2023-05-22T01:32:45.766Z,2.5
2023-05-22T01:33:45.756Z,2.5
2023-05-22T01:34:45.660Z,2.8
2023-05-22T01:35:45.625Z,2.7
2023-05-22T01:36:45.659Z,2.9
2023-05-22T01:37:45.666Z,2.2
2023-05-22T01:38:45.649Z,2.6
2023-05-22T01:39:45.687Z,2.8
2023-05-22T01:40:45.635Z,2.2
2023-05-22T01:41:45.643Z,2.4
2023-05-22T01:42:45.678Z,3.0
2023-05-22T01:43:45.719Z,3.0
2023-05-22T01:44:45.650Z,2.6
2023-05-22T01:45:45.656Z,2.6
2023-05-22T01:46:45.779Z,2.6
2023-05-22T01:47:45.683Z,2.6
2023-05-22T01:48:45.661Z,2.7
2023-05-22T01:49:45.652Z,2.6
2023-05-22T01:50:45.643Z,2.8
2023-05-22T01:51:45.632Z,2.7
2023-05-22T01:52:45.649Z,2.8
2023-05-22T01:53:45.681Z,2.7
2023-05-22T01:54:45.634Z,2.2
2023-05-22T01:55:45.655Z,2.4
2023-05-22T01:56:45.636Z,2.2
2023-05-22T01:57:45.874Z,2.7
2023-05-22T01:58:45.673Z,2.9
2023-05-22T01:59:45.636Z,2.7
2023-05-22T02:00:45.654Z,2.6
2023-05-22T02:01:45.704Z,2.6
2023-05-22T02:02:45.660Z,2.5
2023-05-22T02:03:45.673Z,2.6
2023-05-22T02:04:45.643Z,2.5
2023-05-22T02:05:45.593Z,2.6
2023-05-22T02:06:45.604Z,2.7
2023-05-22T02:07:45.638Z,2.2
2023-05-22T02:08:45.583Z,2.3
2023-05-22T02:09:45.619Z,2.5
2023-05-22T02:10:45.601Z,2.7
2023-05-22T02:11:45.596Z,2.7
2023-05-22T02:12:45.590Z,2.7
2023-05-22T02:13:45.571Z,2.6
2023-05-22T02:14:45.584Z,2.3
2023-05-22T02:15:45.669Z,2.8
2023-05-22T02:16:45.788Z,2.6
2023-05-22T02:17:45.728Z,2.7
2023-05-22T02:18:45.685Z,3.0
2023-05-22T02:19:45.739Z,2.3
2023-05-22T02:20:45.650Z,3.1
2023-05-22T02:21:45.617Z,2.3
2023-05-22T02:22:45.591Z,2.7
2023-05-22T02:23:45.560Z,2.3
2023-05-22T02:24:45.626Z,2.7
2023-05-22T02:25:45.588Z,2.4
2023-05-22T02:26:45.597Z,3.1
2023-05-22T02:27:45.578Z,2.3
2023-05-22T02:28:45.563Z,3.1
2023-05-22T02:29:45.590Z,2.7
2023-05-22T02:30:45.567Z,2.3
2023-05-22T02:31:45.734Z,2.6
2023-05-22T02:32:45.585Z,3.0
2023-05-22T02:33:45.594Z,2.4
2023-05-22T02:34:45.521Z,2.6
2023-05-22T02:35:45.535Z,2.7
2023-05-22T02:36:45.535Z,2.5
2023-05-22T02:37:45.561Z,3.2
2023-05-22T02:38:45.570Z,3.0
2023-05-22T02:39:45.570Z,3.4
2023-05-22T02:40:45.589Z,2.9
2023-05-22T02:41:45.712Z,2.8
2023-05-22T02:42:45.626Z,2.9
2023-05-22T02:43:45.572Z,2.8
2023-05-22T02:44:45.618Z,2.8
2023-05-22T02:45:45.522Z,3.2
2023-05-22T02:46:45.583Z,2.9
2023-05-22T02:47:45.554Z,3.1
2023-05-22T02:48:45.596Z,3.9
2023-05-22T02:49:45.564Z,2.9
2023-05-22T02:50:45.541Z,3.3
2023-05-22T02:51:45.513Z,3.6
2023-05-22T02:52:45.525Z,3.4
2023-05-22T02:53:45.547Z,3.7
2023-05-22T02:54:45.549Z,3.7
2023-05-22T02:55:45.508Z,3.9
2023-05-22T02:56:45.542Z,3.6
2023-05-22T02:57:45.542Z,3.9
2023-05-22T02:58:45.525Z,3.8
2023-05-22T02:59:45.521Z,3.9
2023-05-22T03:00:45.505Z,3.7
2023-05-22T03:01:45.573Z,4.0
2023-05-22T03:02:45.589Z,3.6
2023-05-22T03:03:45.758Z,4.6
2023-05-22T03:04:45.488Z,4.2
2023-05-22T03:05:45.510Z,4.2
2023-05-22T03:06:45.480Z,5.0
2023-05-22T03:07:48.323Z,4.0
2023-05-22T03:08:45.505Z,3.9
2023-05-22T03:09:45.490Z,4.1
2023-05-22T03:10:45.549Z,4.3
2023-05-22T03:11:45.470Z,4.4
2023-05-22T03:12:45.473Z,5.0
2023-05-22T03:13:45.501Z,4.8
2023-05-22T03:14:45.655Z,4.3
2023-05-22T03:15:45.550Z,4.9
2023-05-22T03:16:45.558Z,4.6
2023-05-22T03:17:45.510Z,4.7
2023-05-22T03:18:45.539Z,4.7
2023-05-22T03:19:45.512Z,4.9
2023-05-22T03:20:45.492Z,4.9
2023-05-22T03:21:45.562Z,4.9
2023-05-22T03:22:45.475Z,4.7
2023-05-22T03:23:45.533Z,4.8
2023-05-22T03:24:45.494Z,4.9
2023-05-22T03:25:45.677Z,5.0
2023-05-22T03:26:45.476Z,4.8
2023-05-22T03:27:45.506Z,5.0
2023-05-22T03:28:45.463Z,4.9
2023-05-22T03:29:45.482Z,4.5
2023-05-22T03:30:45.526Z,4.8
2023-05-22T03:31:45.522Z,5.5
2023-05-22T03:32:45.513Z,4.7
2023-05-22T03:33:45.539Z,6.0
2023-05-22T03:34:45.498Z,5.0
2023-05-22T03:35:45.771Z,5.9
2023-05-22T03:36:45.742Z,5.0
2023-05-22T03:37:45.498Z,4.8
2023-05-22T03:38:45.478Z,4.8
2023-05-22T03:39:45.483Z,5.3
2023-05-22T03:40:45.476Z,4.9
2023-05-22T03:41:45.444Z,5.0
2023-05-22T03:42:45.508Z,4.7
2023-05-22T03:43:45.481Z,4.4
2023-05-22T03:44:45.430Z,4.9
2023-05-22T03:45:45.467Z,4.6
2023-05-22T03:46:46.110Z,4.8
2023-05-22T03:47:45.757Z,4.9
2023-05-22T03:48:45.606Z,4.9
2023-05-22T03:49:45.835Z,4.4
2023-05-22T03:50:45.494Z,4.6
2023-05-22T03:51:45.433Z,4.6
2023-05-22T03:52:45.472Z,4.0
2023-05-22T03:53:45.420Z,3.7
2023-05-22T03:54:45.402Z,4.3
2023-05-22T03:55:45.454Z,4.2
2023-05-22T03:56:45.437Z,3.7
2023-05-22T03:57:45.436Z,3.7
2023-05-22T03:58:45.510Z,4.0
2023-05-22T03:59:45.415Z,4.1
2023-05-22T04:00:45.403Z,3.6
2023-05-22T04:01:45.460Z,4.2
2023-05-22T04:02:45.659Z,4.4
2023-05-22T04:03:45.662Z,3.6
2023-05-22T04:04:45.510Z,4.0
2023-05-22T04:05:45.373Z,3.4
2023-05-22T04:06:45.479Z,3.4
2023-05-22T04:07:45.416Z,3.9
2023-05-22T04:08:45.392Z,3.7
2023-05-22T04:09:45.569Z,4.0
2023-05-22T04:10:45.408Z,3.8
2023-05-22T04:11:45.442Z,3.7
2023-05-22T04:12:45.427Z,3.5
2023-05-22T04:13:45.363Z,3.0
2023-05-22T04:14:45.429Z,3.3
2023-05-22T04:15:45.403Z,3.4
2023-05-22T04:16:45.389Z,3.5
2023-05-22T04:17:45.503Z,3.5
2023-05-22T04:18:45.389Z,3.5
2023-05-22T04:19:45.365Z,3.2
2023-05-22T04:20:45.579Z,3.7
2023-05-22T04:21:45.409Z,3.7
2023-05-22T04:22:45.414Z,3.5
2023-05-22T04:23:45.483Z,3.4
2023-05-22T04:24:45.654Z,3.1
2023-05-22T04:25:45.624Z,3.0
2023-05-22T04:26:45.357Z,3.5
2023-05-22T04:27:45.348Z,3.3
2023-05-22T04:28:45.408Z,3.2
2023-05-22T04:29:45.442Z,3.5
2023-05-22T04:30:45.334Z,3.4
2023-05-22T04:31:45.583Z,3.4
2023-05-22T04:32:45.508Z,3.1
2023-05-22T04:33:45.408Z,3.3
2023-05-22T04:34:45.430Z,3.5
2023-05-22T04:35:45.358Z,3.7
2023-05-22T04:36:45.497Z,3.6
2023-05-22T04:37:45.382Z,3.5
2023-05-22T04:38:45.365Z,3.2
2023-05-22T04:39:45.375Z,3.4
2023-05-22T04:40:45.326Z,3.4
2023-05-22T04:41:45.337Z,3.6
2023-05-22T04:42:45.547Z,3.8
2023-05-22T04:43:45.321Z,4.1
2023-05-22T04:44:45.401Z,3.6
2023-05-22T04:45:45.368Z,3.4
2023-05-22T04:46:45.398Z,3.7
2023-05-22T04:47:45.354Z,3.8
2023-05-22T04:48:45.311Z,3.8
2023-05-22T04:49:45.480Z,3.8
2023-05-22T04:50:45.358Z,4.0
2023-05-22T04:51:45.356Z,4.4
2023-05-22T04:52:45.312Z,3.9
2023-05-22T04:53:45.544Z,4.1
2023-05-22T04:54:45.439Z,3.6
2023-05-22T04:55:45.327Z,3.7
2023-05-22T04:56:45.348Z,4.2
2023-05-22T04:57:45.351Z,4.2
2023-05-22T04:58:45.380Z,4.0
2023-05-22T04:59:45.348Z,3.7
2023-05-22T05:00:45.362Z,3.9
2023-05-22T05:01:45.411Z,3.8
2023-05-22T05:02:45.431Z,3.8
2023-05-22T05:03:45.379Z,3.8
2023-05-22T05:04:45.507Z,4.3
2023-05-22T05:05:45.326Z,3.9
2023-05-22T05:06:45.317Z,3.9
2023-05-22T05:07:47.148Z,3.7
2023-05-22T05:08:45.288Z,4.0
2023-05-22T05:09:45.438Z,3.4
2023-05-22T05:10:45.368Z,3.7
2023-05-22T05:11:45.328Z,3.6
2023-05-22T05:12:45.321Z,3.8
2023-05-22T05:13:45.299Z,3.6
2023-05-22T05:14:45.368Z,3.8
2023-05-22T05:15:45.514Z,3.5
2023-05-22T05:16:45.313Z,3.6
2023-05-22T05:17:45.391Z,3.5
2023-05-22T05:18:45.330Z,4.3
2023-05-22T05:19:45.334Z,3.8
2023-05-22T05:20:45.309Z,4.2
2023-05-22T05:21:45.300Z,4.1
2023-05-22T05:22:45.326Z,3.6
2023-05-22T05:23:45.271Z,3.5
2023-05-22T05:24:45.356Z,3.6
2023-05-22T05:25:45.338Z,3.1
2023-05-22T05:26:45.472Z,3.8
2023-05-22T05:27:45.322Z,3.4
2023-05-22T05:28:45.339Z,3.5
2023-05-22T05:29:45.444Z,3.2
2023-05-22T05:30:45.307Z,3.7
2023-05-22T05:31:45.414Z,3.5
2023-05-22T05:32:45.376Z,4.3
2023-05-22T05:33:45.300Z,3.7
2023-05-22T05:34:45.304Z,3.5
2023-05-22T05:35:45.242Z,3.2
2023-05-22T05:36:45.236Z,3.3
2023-05-22T05:37:45.430Z,3.7
2023-05-22T05:38:45.254Z,3.0
2023-05-22T05:39:46.375Z,3.3
2023-05-22T05:40:45.301Z,3.0
2023-05-22T05:41:45.299Z,3.3
2023-05-22T05:42:45.232Z,3.1
2023-05-22T05:43:45.281Z,2.9
2023-05-22T05:44:45.291Z,2.9
2023-05-22T05:45:45.357Z,2.9
2023-05-22T05:46:45.241Z,2.8
2023-05-22T05:47:45.308Z,3.7
2023-05-22T05:48:45.399Z,3.8
2023-05-22T05:49:45.242Z,2.8
2023-05-22T05:50:45.232Z,3.0
2023-05-22T05:51:45.312Z,3.0
2023-05-22T05:52:45.240Z,3.2
2023-05-22T05:53:45.229Z,3.1
2023-05-22T05:54:45.235Z,3.4
2023-05-22T05:55:45.205Z,3.1
2023-05-22T05:56:45.234Z,3.0
2023-05-22T05:57:45.231Z,3.0
2023-05-22T05:58:45.238Z,3.2
2023-05-22T05:59:45.380Z,3.0
2023-05-22T06:00:45.250Z,2.9
2023-05-22T06:01:45.251Z,3.0
2023-05-22T06:02:45.743Z,2.8
2023-05-22T06:03:45.319Z,2.9
2023-05-22T06:04:45.264Z,3.0
2023-05-22T06:05:45.222Z,2.8
2023-05-22T06:06:45.261Z,3.4
2023-05-22T06:07:45.198Z,2.9
2023-05-22T06:08:45.196Z,2.9
2023-05-22T06:09:45.202Z,2.6
2023-05-22T06:10:45.410Z,3.0
2023-05-22T06:11:45.237Z,3.0
2023-05-22T06:12:45.211Z,3.1
2023-05-22T06:13:45.231Z,3.1
2023-05-22T06:14:45.201Z,3.6
2023-05-22T06:15:45.311Z,2.5
2023-05-22T06:16:45.259Z,2.9
2023-05-22T06:17:45.279Z,2.8
2023-05-22T06:18:45.313Z,2.9
2023-05-22T06:19:45.248Z,3.1
2023-05-22T06:20:45.174Z,2.6
2023-05-22T06:21:45.338Z,2.7
2023-05-22T06:22:45.178Z,3.4
2023-05-22T06:23:45.179Z,3.0
2023-05-22T06:24:45.207Z,3.1
2023-05-22T06:25:45.154Z,3.2
2023-05-22T06:26:45.230Z,3.0
2023-05-22T06:27:45.186Z,3.3
2023-05-22T06:28:45.202Z,3.0
2023-05-22T06:29:45.244Z,3.4
2023-05-22T06:30:45.452Z,3.1
2023-05-22T06:31:45.292Z,2.8
2023-05-22T06:32:45.381Z,3.2
2023-05-22T06:33:45.341Z,3.2
2023-05-22T06:34:45.174Z,2.9
2023-05-22T06:35:45.146Z,3.1
2023-05-22T06:36:45.201Z,3.1
2023-05-22T06:37:45.224Z,2.8
2023-05-22T06:38:45.181Z,3.0
2023-05-22T06:39:45.217Z,2.6
2023-05-22T06:40:45.173Z,2.9
2023-05-22T06:41:45.176Z,2.9
2023-05-22T06:42:45.222Z,3.1
2023-05-22T06:43:45.289Z,2.7
2023-05-22T06:44:45.185Z,2.7
2023-05-22T06:45:45.256Z,3.2
2023-05-22T06:46:45.151Z,3.1
2023-05-22T06:47:45.198Z,2.7
2023-05-22T06:48:45.143Z,3.3
2023-05-22T06:49:45.167Z,2.5
2023-05-22T06:50:45.227Z,2.9
2023-05-22T06:51:45.180Z,4.3
2023-05-22T06:52:45.240Z,2.8
2023-05-22T06:53:45.166Z,3.1
2023-05-22T06:54:45.423Z,2.9
2023-05-22T06:55:45.219Z,2.9
2023-05-22T06:56:45.128Z,3.2
2023-05-22T06:57:45.171Z,2.9
2023-05-22T06:58:45.117Z,2.9
2023-05-22T06:59:45.135Z,2.8
2023-05-22T07:00:45.164Z,3.0
2023-05-22T07:01:45.260Z,3.0
2023-05-22T07:02:45.204Z,2.9
2023-05-22T07:03:45.156Z,2.5
2023-05-22T07:04:45.103Z,2.8
2023-05-22T07:05:45.333Z,2.4
2023-05-22T07:06:45.134Z,4.2
2023-05-22T07:07:45.115Z,2.8
2023-05-22T07:08:45.169Z,2.3
2023-05-22T07:09:45.133Z,2.5
2023-05-22T07:10:45.180Z,2.6
2023-05-22T07:11:45.104Z,2.4
2023-05-22T07:12:45.159Z,2.6
2023-05-22T07:13:45.153Z,2.4
2023-05-22T07:14:45.118Z,2.6
2023-05-22T07:15:46.551Z,2.7
2023-05-22T07:16:45.339Z,2.4
2023-05-22T07:17:45.128Z,2.2
2023-05-22T07:18:45.136Z,2.6
2023-05-22T07:19:45.161Z,2.4
2023-05-22T07:20:45.152Z,2.2
2023-05-22T07:21:45.183Z,2.3
2023-05-22T07:22:45.128Z,2.3
2023-05-22T07:23:45.088Z,2.4
2023-05-22T07:24:45.159Z,2.8
2023-05-22T07:25:45.099Z,2.2
2023-05-22T07:26:45.173Z,2.4
2023-05-22T07:27:45.253Z,1.9
2023-05-22T07:28:45.126Z,2.5
2023-05-22T07:29:45.142Z,2.3
2023-05-22T07:30:45.139Z,2.8
2023-05-22T07:31:45.173Z,2.3
2023-05-22T07:32:45.151Z,2.1
2023-05-22T07:33:45.113Z,2.6
2023-05-22T07:34:45.164Z,2.4
2023-05-22T07:35:45.087Z,2.7
2023-05-22T07:36:45.170Z,2.6
2023-05-22T07:37:45.082Z,2.3
2023-05-22T07:38:45.360Z,2.0
2023-05-22T07:39:45.115Z,2.0
2023-05-22T07:40:45.087Z,2.3
2023-05-22T07:41:45.269Z,2.1
2023-05-22T07:42:45.079Z,2.8
2023-05-22T07:43:45.125Z,2.2
2023-05-22T07:44:45.080Z,2.6
2023-05-22T07:45:45.105Z,2.9
2023-05-22T07:46:45.176Z,2.2
2023-05-22T07:47:45.086Z,2.3
2023-05-22T07:48:45.188Z,2.6
2023-05-22T07:49:45.256Z,2.2
2023-05-22T07:50:45.076Z,2.3
2023-05-22T07:51:45.086Z,2.2
2023-05-22T07:52:45.137Z,2.3
2023-05-22T07:53:45.153Z,2.2
2023-05-22T07:54:45.628Z,2.6
2023-05-22T07:55:45.111Z,2.0
2023-05-22T07:56:45.167Z,2.5
2023-05-22T08:32:51.459Z,2.6
2023-05-22T08:33:51.952Z,2.3
2023-05-22T08:34:51.276Z,2.3
2023-05-22T08:35:51.310Z,2.3
2023-05-22T08:36:51.279Z,2.3
2023-05-22T08:37:51.266Z,2.2
2023-05-22T08:38:51.360Z,2.1
2023-05-22T08:39:51.289Z,2.1
2023-05-22T08:40:51.277Z,2.5
2023-05-22T08:41:51.305Z,2.3
2023-05-22T08:42:51.413Z,2.7
2023-05-22T08:43:51.331Z,2.3
2023-05-22T08:44:51.319Z,2.4
2023-05-22T08:45:51.328Z,2.0
2023-05-22T08:46:51.310Z,2.5
2023-05-22T09:04:51.687Z,2.6
2023-05-22T09:05:53.985Z,2.5
2023-05-22T09:06:51.301Z,2.2
2023-05-22T09:07:51.271Z,2.5
2023-05-22T09:08:51.679Z,2.5
2023-05-22T09:09:51.361Z,2.4
2023-05-22T09:10:51.241Z,2.2
2023-05-22T09:11:51.291Z,2.1
2023-05-22T09:12:51.239Z,3.3
2023-05-22T09:13:51.225Z,2.6
2023-05-22T09:14:52.238Z,2.4
2023-05-22T09:15:51.295Z,2.6
2023-05-22T09:16:51.256Z,2.4
2023-05-22T09:17:51.292Z,2.4
2023-05-22T09:18:51.300Z,2.2
2023-05-22T09:19:51.295Z,2.2
2023-05-22T09:20:51.196Z,2.5
2023-05-22T09:21:51.224Z,2.4
2023-05-22T09:22:51.194Z,2.6
2023-05-22T09:23:51.291Z,2.5
2023-05-22T09:24:51.192Z,2.7
2023-05-22T09:25:51.408Z,2.2
2023-05-22T09:26:51.312Z,2.7
2023-05-22T09:27:51.182Z,2.5
2023-05-22T09:28:51.247Z,2.6
2023-05-22T09:29:51.265Z,2.8
2023-05-22T09:30:51.250Z,2.5
2023-05-22T09:31:51.258Z,2.6
2023-05-22T09:32:51.440Z,2.6
2023-05-22T09:33:51.296Z,3.0
2023-05-22T09:34:51.187Z,2.6
2023-05-22T09:35:51.257Z,2.5
2023-05-22T09:36:51.332Z,2.5
2023-05-22T09:37:51.321Z,2.6
2023-05-22T09:38:51.226Z,2.9
2023-05-22T09:39:51.193Z,2.5
2023-05-22T09:40:51.222Z,3.0
2023-05-22T09:41:51.186Z,2.9
2023-05-22T09:42:51.272Z,3.1
2023-05-22T09:43:51.207Z,2.4
2023-05-22T09:44:51.267Z,2.8
2023-05-22T09:45:51.230Z,2.3
2023-05-22T09:46:51.363Z,2.9
2023-05-22T09:47:51.192Z,2.7
2023-05-22T09:48:51.202Z,2.7
2023-05-22T09:49:51.189Z,2.7
2023-05-22T09:50:51.237Z,2.9
2023-05-22T09:51:51.216Z,2.7
2023-05-22T09:52:51.193Z,2.9
2023-05-22T09:53:51.329Z,2.7
2023-05-22T09:54:51.192Z,2.5
2023-05-22T09:55:51.190Z,2.3
2023-05-22T09:56:51.558Z,2.4
2023-05-22T09:57:51.213Z,2.9
2023-05-22T09:58:51.353Z,2.6
2023-05-22T09:59:51.170Z,2.8
2023-05-22T10:00:51.177Z,3.5
2023-05-22T10:01:51.213Z,2.4
2023-05-22T10:02:51.213Z,2.3
2023-05-22T10:03:51.210Z,2.7
2023-05-22T10:04:51.268Z,2.3
2023-05-22T10:05:51.361Z,2.2
2023-05-22T10:06:51.190Z,2.2
2023-05-22T10:07:51.180Z,2.5
2023-05-22T10:08:51.306Z,2.4
2023-05-22T10:09:51.335Z,2.5
2023-05-22T10:10:51.214Z,2.9
2023-05-22T10:11:51.193Z,2.5
2023-05-22T10:12:51.217Z,2.7
2023-05-22T10:13:51.181Z,2.5
2023-05-22T10:14:51.278Z,2.8
2023-05-22T10:15:51.161Z,2.5
2023-05-22T10:16:51.139Z,2.4
2023-05-22T10:17:51.206Z,2.8
2023-05-22T10:18:51.210Z,2.4
2023-05-22T10:19:51.213Z,3.0
2023-05-22T10:20:51.398Z,2.5
2023-05-22T10:21:51.135Z,2.5
2023-05-22T10:22:51.140Z,2.8
2023-05-22T10:23:51.196Z,2.3
2023-05-22T10:24:51.229Z,3.0
2023-05-22T10:25:51.178Z,2.5
2023-05-22T10:26:51.356Z,2.5
2023-05-22T10:27:51.202Z,2.9
2023-05-22T10:28:52.098Z,2.9
2023-05-22T10:29:51.159Z,2.5
2023-05-22T10:30:51.167Z,2.3
2023-05-22T10:31:51.415Z,2.5
2023-05-22T10:32:51.361Z,2.9
2023-05-22T10:33:51.124Z,2.6
2023-05-22T10:34:51.151Z,2.5
2023-05-22T10:35:51.328Z,2.4
2023-05-22T10:36:51.153Z,2.9
2023-05-22T10:37:51.123Z,2.6
2023-05-22T10:38:51.124Z,2.7
2023-05-22T10:39:51.110Z,2.8
2023-05-22T10:40:51.097Z,3.3
2023-05-22T10:41:51.194Z,2.5
2023-05-22T10:42:51.142Z,2.3
2023-05-22T10:43:51.111Z,2.7
2023-05-22T10:44:51.111Z,2.9
2023-05-22T10:45:51.245Z,2.2
2023-05-22T10:46:51.245Z,2.3
2023-05-22T10:47:51.187Z,2.5
2023-05-22T10:48:51.131Z,2.4
2023-05-22T10:49:51.121Z,2.4
2023-05-22T10:50:51.164Z,2.5
2023-05-22T10:51:51.139Z,2.2
2023-05-22T10:52:51.261Z,2.7
2023-05-22T10:53:51.158Z,2.3
2023-05-22T10:54:51.120Z,2.5
2023-05-22T10:55:51.116Z,2.8
2023-05-22T10:56:51.184Z,2.6
2023-05-22T10:57:51.080Z,2.4
2023-05-22T10:58:51.108Z,2.8
2023-05-22T10:59:51.117Z,2.8
2023-05-22T11:00:51.118Z,2.6
2023-05-22T11:01:51.169Z,2.9
2023-05-22T11:02:51.130Z,2.2
2023-05-22T11:03:51.268Z,2.3
2023-05-22T11:04:51.181Z,3.2
2023-05-22T11:05:51.092Z,2.4
2023-05-22T11:06:51.076Z,2.9
2023-05-22T11:07:51.116Z,2.5
2023-05-22T11:08:51.093Z,2.2
2023-05-22T11:09:51.157Z,2.4
2023-05-22T11:10:51.073Z,2.4
2023-05-22T11:11:51.098Z,2.2
2023-05-22T11:12:51.134Z,2.6
2023-05-22T11:13:51.061Z,2.7
2023-05-22T11:14:51.317Z,2.1
2023-05-22T11:15:51.189Z,2.2
2023-05-22T11:16:51.183Z,2.1
2023-05-22T11:17:51.240Z,2.3
2023-05-22T11:18:51.077Z,2.2
2023-05-22T11:19:51.156Z,2.6
2023-05-22T11:20:51.112Z,2.2
2023-05-22T11:21:51.103Z,2.3
2023-05-22T11:22:51.215Z,2.6
2023-05-22T11:23:51.139Z,2.2
2023-05-22T11:24:51.080Z,2.5
2023-05-22T11:25:51.100Z,2.5
2023-05-22T11:26:51.219Z,2.2
2023-05-22T11:27:51.153Z,2.3
2023-05-22T11:28:51.061Z,2.4
2023-05-22T11:29:51.147Z,2.7
2023-05-22T11:30:51.168Z,2.3
2023-05-22T11:31:51.071Z,2.3
2023-05-22T11:32:51.107Z,2.4
2023-05-22T11:33:51.097Z,2.5
2023-05-22T11:34:51.266Z,2.5
2023-05-22T11:35:51.058Z,2.7
2023-05-22T11:36:51.102Z,2.3
2023-05-22T11:37:51.209Z,2.6
2023-05-22T11:38:51.171Z,2.5
2023-05-22T11:39:51.063Z,2.6
2023-05-22T11:40:51.090Z,2.9
2023-05-22T11:41:51.069Z,2.7
2023-05-22T11:42:51.070Z,2.5
2023-05-22T11:43:51.184Z,2.8
2023-05-22T11:44:51.154Z,2.5
2023-05-22T11:45:51.100Z,2.3
2023-05-22T11:46:51.191Z,2.4
2023-05-22T11:47:51.272Z,2.4
2023-05-22T11:48:51.068Z,2.3
2023-05-22T11:49:51.094Z,2.2
2023-05-22T11:50:51.083Z,2.6
2023-05-22T11:51:51.093Z,2.9
2023-05-22T11:52:51.038Z,2.2
2023-05-22T11:53:51.064Z,2.3
2023-05-22T11:54:51.055Z,2.1
2023-05-22T11:55:51.071Z,2.6
2023-05-22T11:56:51.073Z,2.7
2023-05-22T11:57:51.062Z,2.8
2023-05-22T11:58:51.036Z,2.2
2023-05-22T11:59:51.236Z,2.4
2023-05-22T12:00:51.949Z,2.1
2023-05-22T12:01:51.016Z,2.3
2023-05-22T12:02:51.169Z,2.8
2023-05-22T12:03:51.127Z,2.6
2023-05-22T12:04:51.033Z,2.4
2023-05-22T12:05:51.224Z,2.2
2023-05-22T12:06:51.203Z,2.9
2023-05-22T12:07:51.083Z,2.4
2023-05-22T12:08:51.042Z,2.1
2023-05-22T12:09:51.106Z,2.2
2023-05-22T12:10:51.094Z,2.8
2023-05-22T12:11:51.069Z,2.8
2023-05-22T12:12:51.061Z,2.1
2023-05-22T12:13:51.027Z,2.2
2023-05-22T12:14:51.101Z,2.4
2023-05-22T12:15:51.066Z,2.5
2023-05-22T12:16:51.097Z,2.9
2023-05-22T12:17:51.223Z,2.1
2023-05-22T12:18:51.080Z,2.5
2023-05-22T12:19:51.033Z,3.0
2023-05-22T12:20:51.041Z,2.8
2023-05-22T12:21:51.318Z,2.3
2023-05-22T12:22:52.078Z,2.2
2023-05-22T12:23:51.177Z,2.3
2023-05-22T12:24:51.007Z,2.4
2023-05-22T12:25:51.040Z,2.3
2023-05-22T12:26:51.009Z,2.2
2023-05-22T12:27:50.975Z,2.0
2023-05-22T12:28:50.993Z,2.3
2023-05-22T12:29:51.058Z,2.1
2023-05-22T12:30:51.043Z,2.4
2023-05-22T12:31:51.053Z,2.3
2023-05-22T12:32:51.039Z,2.4
2023-05-22T12:33:51.087Z,2.4
2023-05-22T12:34:51.191Z,2.6
2023-05-22T12:35:51.366Z,2.5
2023-05-22T12:36:51.235Z,2.2
2023-05-22T12:37:51.046Z,2.2
2023-05-22T12:38:51.147Z,2.4
2023-05-22T12:39:51.235Z,2.8
2023-05-22T12:40:51.041Z,2.2
2023-05-22T12:41:51.032Z,2.4
2023-05-22T12:42:50.969Z,2.3
2023-05-22T12:43:50.960Z,2.2
2023-05-22T12:44:50.991Z,2.4
2023-05-22T12:45:51.050Z,2.4
2023-05-22T12:46:51.075Z,2.4
2023-05-22T12:47:51.093Z,2.3
2023-05-22T12:48:51.007Z,2.3
2023-05-22T12:49:51.064Z,2.6
2023-05-22T12:50:51.117Z,2.7
2023-05-22T12:51:51.031Z,2.4
2023-05-22T12:52:50.996Z,3.1
2023-05-22T12:53:50.940Z,2.0
2023-05-22T12:54:51.303Z,2.3
2023-05-22T12:55:51.018Z,2.1
2023-05-22T12:56:50.999Z,2.2
2023-05-22T12:57:50.977Z,2.2
2023-05-22T12:58:50.934Z,2.7
2023-05-22T12:59:51.023Z,2.5
2023-05-22T13:00:51.436Z,2.3
2023-05-22T13:01:51.036Z,2.4
2023-05-22T13:02:51.051Z,2.8
2023-05-22T13:03:50.981Z,3.0
2023-05-22T13:04:51.013Z,2.6
2023-05-22T13:05:50.979Z,3.0
2023-05-22T13:06:51.019Z,2.5
2023-05-22T13:07:51.033Z,2.6
2023-05-22T13:08:51.000Z,2.4
2023-05-22T13:09:51.113Z,2.5
2023-05-22T13:10:50.993Z,2.6
2023-05-22T13:11:51.064Z,2.3
2023-05-22T13:12:50.965Z,2.8
2023-05-22T13:13:50.994Z,2.3
2023-05-22T13:14:51.020Z,2.4
2023-05-22T13:15:51.203Z,2.4
2023-05-22T13:16:50.995Z,2.5
2023-05-22T13:17:51.017Z,2.5
2023-05-22T13:18:50.952Z,2.6
2023-05-22T13:19:50.929Z,2.5
2023-05-22T13:20:51.073Z,2.9
2023-05-22T13:21:50.979Z,2.5
2023-05-22T13:22:50.989Z,2.6
2023-05-22T13:23:50.969Z,2.1
2023-05-22T13:24:51.982Z,2.2
2023-05-22T13:25:50.943Z,2.4
2023-05-22T13:26:52.700Z,2.2
2023-05-22T13:27:51.278Z,3.0
2023-05-22T13:28:51.384Z,2.4
2023-05-22T13:29:50.948Z,2.2
2023-05-22T13:30:50.989Z,2.2
2023-05-22T13:31:50.950Z,2.6
2023-05-22T13:32:51.051Z,2.5
2023-05-22T13:33:51.005Z,2.6
2023-05-22T13:34:50.982Z,2.3
2023-05-22T13:35:50.932Z,2.4
2023-05-22T13:36:50.898Z,2.5
2023-05-22T13:37:50.932Z,2.1
2023-05-22T13:38:50.935Z,3.3
2023-05-22T13:39:50.928Z,3.0
2023-05-22T13:40:50.997Z,2.5
2023-05-22T13:41:50.915Z,2.8
2023-05-22T13:42:50.930Z,3.1
2023-05-22T13:43:50.903Z,2.5
2023-05-22T13:44:50.973Z,2.6
2023-05-22T13:45:50.934Z,2.3
2023-05-22T13:46:50.935Z,2.4
2023-05-22T13:47:50.930Z,2.3
2023-05-22T13:48:51.016Z,2.8
2023-05-22T13:49:50.900Z,2.1
2023-05-22T13:50:51.030Z,2.7
2023-05-22T13:51:50.907Z,2.6
2023-05-22T13:52:50.893Z,2.9
2023-05-22T13:53:50.904Z,2.7
2023-05-22T13:54:50.890Z,2.5
2023-05-22T13:55:51.069Z,2.0
2023-05-22T13:56:50.891Z,2.1
2023-05-22T13:57:50.931Z,2.3
2023-05-22T13:58:50.872Z,2.1
2023-05-22T13:59:51.023Z,2.2
2023-05-22T14:00:50.965Z,2.3
2023-05-22T14:01:50.942Z,2.6
2023-05-22T14:02:51.311Z,2.1
2023-05-22T14:03:50.874Z,2.2
2023-05-22T14:04:50.852Z,2.3
2023-05-22T14:05:50.916Z,2.5
2023-05-22T14:06:50.926Z,2.8
2023-05-22T14:07:50.858Z,2.5
2023-05-22T14:08:50.906Z,2.6
2023-05-22T14:09:50.976Z,2.3
2023-05-22T14:10:51.198Z,2.5
2023-05-22T14:11:50.968Z,2.4
2023-05-22T14:12:50.939Z,2.2
2023-05-22T14:13:50.949Z,2.2
2023-05-22T14:14:51.005Z,2.1
2023-05-22T14:15:50.908Z,2.2
2023-05-22T14:16:52.109Z,2.5
2023-05-22T14:17:51.455Z,2.2
2023-05-22T14:18:51.036Z,2.4
2023-05-22T14:19:50.968Z,2.5
2023-05-22T14:20:50.903Z,2.4
2023-05-22T14:21:50.895Z,2.4
2023-05-22T14:22:57.907Z,2.3
2023-05-22T14:23:50.941Z,2.6
2023-05-22T14:24:51.070Z,2.4
2023-05-22T14:25:50.842Z,2.0
2023-05-22T14:26:50.860Z,2.6
2023-05-22T14:27:50.872Z,2.4
2023-05-22T14:28:51.064Z,2.4
2023-05-22T14:29:50.847Z,2.6
2023-05-22T14:30:50.873Z,2.5
2023-05-22T14:31:51.951Z,2.6
2023-05-22T14:32:51.034Z,2.3
2023-05-22T14:33:50.869Z,2.4
2023-05-22T14:34:50.850Z,2.4
2023-05-22T14:35:50.837Z,2.7
2023-05-22T14:36:50.879Z,2.3
2023-05-22T14:37:50.861Z,2.2
2023-05-22T14:38:50.857Z,2.3